Terminal Aerodrome Forecast
Issued by NWS Portland, OR

Home | Current Version | Previous Version | Text Only | Print | Product List | Glossary On
Versions: 1 2 3 4 5 6 7 8 9 10 11 12 13 14 15 16 17 18 19 20 21 22 23 24 25 26 27 28
612
FTUS46 KPQR 040534
TAFHIO
TAF
KHIO 040534Z 0406/0506 31010KT P6SM SCT040 BKN060 OVC120
      TEMPO 0406/0409 6SM -SHRA BKN040
     FM041000 VRB03KT P6SM VCSH BKN025 BKN050 OVC120
     FM041400 VRB03KT P6SM OVC015
     FM041700 33004KT P6SM SCT020 OVC035
     FM042100 33007KT P6SM VCSH SCT035 BKN050
     FM050300 31009KT P6SM VCSH SCT030 BKN045=

USA.gov is the U.S. government's official web portal to all federal, state and local government web resources and services.